Latest Weather Observations for Roebourne Airport

IDW60801

Issued at 9:05 pm WST Saturday 23 August 2014 (issued every 30 minutes, with the page automatically refreshed every 10 minutes)

About weather observations | Map of weather stations | Latest weather observations for WA | Other Formats
Station Details ID: 004090 Name: ROEBOURNE AERO Lat: -20.76 Lon: 117.16 Height: 10.7 m
Data from the previous 72 hours. | See also: Recent months at Roebourne Airport
Date/Time
WST
Temp
°C
App
Temp
°C
Dew
Point
Rel
Hum
%
Delta-T
°C
Wind Press
QNH
hPa
Press
MSL
hPa
Rain
since 9 am
mm
Dir
 
Spd
km/h
Gust
km/h
Spd
kts
Gust
kts
23/09:00pm 16.2 14.8 10.9 71 2.8 S 9 11 5 6 1019.6 1019.5 0.0
23/08:30pm 17.3 17.8 11.6 69 3.1 SSW 0 0 0 0 1019.5 1019.4 0.0
23/08:00pm 18.1 17.6 12.5 70 3.1 SSW 7 13 4 7 1019.3 1019.2 0.0
23/07:30pm 18.3 18.7 11.4 64 3.8 CALM 0 4 0 2 1018.9 1018.8 0.0
23/07:00pm 20.7 20.3 12.4 59 4.7 N 6 7 3 4 1018.5 1018.4 0.0
23/06:30pm 22.0 20.1 13.1 57 5.1 N 15 17 8 9 1018.3 1018.2 0.0
23/06:00pm 23.4 21.2 12.1 49 6.4 N 15 17 8 9 1017.9 1017.8 0.0
23/05:30pm 25.2 21.7 11.0 41 8.0 N 20 28 11 15 1017.6 1017.5 0.0
23/05:00pm 26.3 21.8 10.0 36 9.0 N 24 32 13 17 1017.4 1017.3 0.0
23/04:30pm 27.4 22.3 7.8 29 10.5 NNE 24 30 13 16 1017.3 1017.2 0.0
23/04:00pm 28.2 22.7 5.7 24 11.7 NNE 24 32 13 17 1017.2 1017.1 0.0
23/03:30pm 28.8 23.0 6.2 24 11.9 NNE 26 32 14 17 1017.2 1017.1 0.0
23/03:00pm 28.7 22.4 5.5 23 12.1 NNE 28 35 15 19 1017.4 1017.3 0.0
23/02:30pm 29.2 22.2 6.0 23 12.2 NE 32 39 17 21 1017.7 1017.6 0.0
23/02:00pm 29.2 21.6 3.9 20 12.8 NE 33 39 18 21 1017.8 1017.7 0.0
23/01:30pm 29.2 22.3 4.6 21 12.6 NNE 30 37 16 20 1018.1 1018.0 0.0
23/01:00pm 31.2 24.3 2.4 16 14.4 NE 28 35 15 19 1018.2 1018.1 0.0
23/12:30pm 31.1 24.5 2.3 16 14.4 ENE 26 35 14 19 1018.5 1018.4 0.0
23/12:00pm 30.4 23.4 1.8 16 14.1 NE 28 35 15 19 1018.8 1018.7 0.0
23/11:30am 30.8 24.1 1.2 15 14.5 ENE 26 35 14 19 1019.0 1018.9 0.0
23/11:00am 29.9 24.7 2.2 17 13.7 ENE 19 30 10 16 1019.2 1019.1 0.0
23/10:30am 28.9 25.7 6.9 25 11.7 ENE 13 17 7 9 1019.4 1019.3 0.0
23/10:00am 27.5 25.2 7.4 28 10.7 E 9 15 5 8 1019.5 1019.4 0.0
23/09:30am 27.1 24.9 8.0 30 10.3 SE 9 11 5 6 1019.6 1019.5 0.0
23/09:00am 24.2 22.5 8.2 36 8.5 E 7 11 4 6 1019.6 1019.5 0.0
23/08:30am 22.1 21.5 10.3 47 6.4 ENE 4 6 2 3 1019.5 1019.4 0.0
23/08:00am 18.9 17.7 10.2 57 4.6 E 7 9 4 5 1019.2 1019.1 0.0
23/07:30am 15.4 13.8 8.9 65 3.3 E 7 9 4 5 1018.9 1018.8 0.0
23/07:00am 12.5 11.9 7.6 72 2.4 CALM 0 0 0 0 1018.2 1018.1 0.0
23/06:30am 10.7 9.3 5.7 71 2.3 W 2 6 1 3 1017.9 1017.8 0.0
23/06:00am 12.0 11.5 7.9 76 2.0 CALM 0 0 0 0 1017.6 1017.5 0.0
23/05:30am 11.3 10.1 6.6 73 2.2 NE 2 6 1 3 1017.3 1017.2 0.0
23/05:00am 11.3 10.5 6.6 73 2.2 CALM 0 6 0 3 1017.0 1016.9 0.0
23/04:30am 11.8 11.1 7.1 73 2.3 CALM 0 0 0 0 1016.8 1016.7 0.0
23/04:00am 12.1 11.3 6.6 69 2.6 CALM 0 0 0 0 1016.8 1016.7 0.0
23/03:30am 12.2 11.5 6.9 70 2.5 CALM 0 0 0 0 1016.9 1016.8 0.0
23/03:00am 12.6 11.8 6.6 67 2.9 CALM 0 0 0 0 1016.9 1016.8 0.0
23/02:30am 13.1 12.6 8.0 71 2.5 CALM 0 0 0 0 1016.9 1016.8 0.0
23/02:00am 14.2 13.8 8.2 67 3.0 CALM 0 0 0 0 1017.0 1016.9 0.0
23/01:30am 14.1 13.9 8.9 71 2.6 CALM 0 0 0 0 1017.2 1017.1 0.0
23/01:00am 16.0 13.9 9.9 67 3.2 S 11 13 6 7 1017.4 1017.3 0.0
23/12:30am 16.2 14.3 8.9 62 3.7 WSW 9 11 5 6 1017.4 1017.3 0.0
23/12:00am 16.7 15.2 10.5 67 3.3 SW 9 11 5 6 1017.4 1017.3 0.0
 
Date/Time
WST
Temp
°C
App
Temp
°C
Dew
Point
Rel
Hum
%
Delta-T
°C
Wind Press
QNH
hPa
Press
MSL
hPa
Rain
since 9 am
mm
Dir
 
Spd
km/h
Gust
km/h
Spd
kts
Gust
kts
22/11:30pm 16.9 15.8 10.7 67 3.3 SW 7 9 4 5 1017.5 1017.4 0.0
22/11:00pm 16.8 14.5 10.4 66 3.4 SSW 13 15 7 8 1017.7 1017.6 0.0
22/10:30pm 16.4 15.0 9.6 64 3.5 SSW 7 11 4 6 1017.8 1017.7 0.0
22/10:00pm 16.9 15.6 10.1 64 3.6 SSW 7 11 4 6 1017.8 1017.7 0.0
22/09:30pm 17.3 15.3 10.2 63 3.8 SSW 11 17 6 9 1017.8 1017.7 0.0
22/09:00pm 18.4 17.1 10.0 58 4.5 W 7 7 4 4 1017.5 1017.4 0.0
22/08:30pm 18.3 16.7 8.8 54 4.9 S 7 11 4 6 1017.5 1017.4 0.0
22/08:00pm 20.0 19.2 11.2 57 4.8 W 6 7 3 4 1017.1 1017.0 0.0
22/07:30pm 20.5 20.2 11.4 56 5.0 NNW 4 9 2 5 1016.8 1016.7 0.0
22/07:00pm 22.2 20.7 11.9 52 5.8 NNW 11 13 6 7 1016.2 1016.1 0.0
22/06:30pm 22.8 20.8 11.5 49 6.3 NW 13 13 7 7 1015.8 1015.7 0.0
22/06:00pm 24.1 21.9 9.3 39 8.0 NNW 11 13 6 7 1015.4 1015.3 0.0
22/05:30pm 25.9 23.1 10.1 37 8.8 N 15 19 8 10 1015.1 1015.0 0.0
22/05:00pm 27.6 24.0 9.9 33 9.9 N 19 22 10 12 1014.8 1014.7 0.0
22/04:30pm 29.3 24.9 8.9 28 11.3 N 22 28 12 15 1014.5 1014.4 0.0
22/04:00pm 30.5 24.4 2.7 17 13.9 N 24 30 13 16 1014.4 1014.3 0.0
22/03:30pm 30.9 24.4 0.3 14 14.8 N 24 30 13 16 1014.4 1014.3 0.0
22/03:00pm 31.1 25.0 0.5 14 14.8 N 22 28 12 15 1014.6 1014.5 0.0
22/02:30pm 31.4 25.9 0.7 14 15.0 N 19 26 10 14 1014.7 1014.6 0.0
22/02:00pm 30.4 26.1 7.0 23 12.6 N 19 26 10 14 1014.9 1014.8 0.0
22/01:30pm 30.8 27.2 6.6 22 13.0 N 15 22 8 12 1015.3 1015.2 0.0
22/01:00pm 30.0 25.7 5.3 21 12.9 NE 17 22 9 12 1015.7 1015.6 0.0
22/12:30pm 29.1 24.9 5.9 23 12.2 NE 17 24 9 13 1016.2 1016.1 0.0
22/12:00pm 29.2 24.8 6.6 24 12.0 NE 19 24 10 13 1016.5 1016.4 0.0
22/11:30am 28.8 24.6 5.6 23 12.1 NE 17 20 9 11 1016.9 1016.8 0.0
22/11:00am 28.3 24.5 7.5 27 11.2 NE 17 22 9 12 1017.2 1017.1 0.0
22/10:30am 28.3 23.9 6.4 25 11.6 ENE 19 28 10 15 1017.3 1017.2 0.0
22/10:00am 26.6 22.6 6.6 28 10.5 E 17 24 9 13 1017.5 1017.4 0.0
22/09:30am 25.2 22.0 6.9 31 9.6 E 13 20 7 11 1017.7 1017.6 0.0
22/09:00am 23.3 19.8 7.0 35 8.4 E 15 19 8 10 1017.7 1017.6 0.0
22/08:30am 21.0 17.8 6.9 40 7.2 E 13 15 7 8 1017.5 1017.4 0.0
22/08:00am 18.3 15.8 8.0 51 5.3 E 11 13 6 7 1017.3 1017.2 0.0
22/07:30am 15.4 13.2 7.7 60 3.8 E 9 11 5 6 1016.9 1016.8 0.0
22/07:00am 11.8 10.1 8.3 79 1.7 NE 7 9 4 5 1016.7 1016.6 0.0
22/06:30am 10.8 9.7 8.6 86 1.1 E 4 7 2 4 1016.3 1016.2 0.0
22/06:00am 10.0 8.8 6.5 79 1.6 ESE 2 9 1 5 1016.1 1016.0 0.0
22/05:30am 10.5 8.5 7.2 80 1.6 E 7 9 4 5 1015.8 1015.7 0.0
22/05:00am 11.2 8.3 8.1 81 1.5 E 13 17 7 9 1015.4 1015.3 0.0
22/04:30am 12.3 10.1 9.5 83 1.4 WSW 11 13 6 7 1014.9 1014.8 0.0
22/04:00am 11.3 9.3 7.0 75 2.0 WSW 7 9 4 5 1015.0 1014.9 0.0
22/03:30am 11.9 10.0 7.4 74 2.2 WSW 7 9 4 5 1015.1 1015.0 0.0
22/03:00am 11.2 9.7 4.9 65 2.9 W 2 6 1 3 1015.4 1015.3 0.0
22/02:30am 11.9 9.7 6.2 68 2.7 W 7 9 4 5 1015.7 1015.6 0.0
22/02:00am 12.7 10.5 7.8 72 2.4 W 9 11 5 6 1016.0 1015.9 0.0
22/01:30am 14.2 12.3 9.0 71 2.6 W 9 11 5 6 1016.3 1016.2 0.0
22/01:00am 14.6 12.6 8.8 68 2.9 W 9 11 5 6 1016.6 1016.5 0.0
22/12:30am 14.3 13.6 7.1 62 3.5 CALM 0 0 0 0 1016.8 1016.7 0.0
22/12:00am 14.0 13.1 5.9 58 3.8 CALM 0 0 0 0 1017.0 1016.9 0.0
 
Date/Time
WST
Temp
°C
App
Temp
°C
Dew
Point
Rel
Hum
%
Delta-T
°C
Wind Press
QNH
hPa
Press
MSL
hPa
Rain
since 9 am
mm
Dir
 
Spd
km/h
Gust
km/h
Spd
kts
Gust
kts
21/11:30pm 14.3 12.4 6.9 61 3.6 NW 6 7 3 4 1017.0 1016.9 0.0
21/11:00pm 14.1 12.0 6.0 58 3.9 WNW 6 7 3 4 1017.1 1017.0 0.0
21/10:30pm 16.0 14.4 8.7 62 3.7 W 7 9 4 5 1017.2 1017.1 0.0
21/10:00pm 17.7 15.9 9.3 58 4.4 WNW 9 11 5 6 1017.2 1017.1 0.0
21/09:30pm 18.3 16.0 9.1 55 4.8 WNW 11 11 6 6 1017.1 1017.0 0.0
21/09:00pm 18.6 16.3 9.1 54 5.0 WNW 11 13 6 7 1017.1 1017.0 0.0
21/08:30pm 19.5 18.1 9.4 52 5.3 W 7 11 4 6 1016.8 1016.7 0.0
21/08:00pm 20.3 18.8 9.2 49 5.9 W 7 11 4 6 1016.5 1016.4 0.0
21/07:30pm 20.1 18.4 8.4 47 6.1 W 7 9 4 5 1016.0 1015.9 0.0
21/07:00pm 21.1 18.4 7.3 41 7.1 WNW 11 15 6 8 1015.6 1015.5 0.0
21/06:30pm 21.8 18.8 6.1 36 7.9 WNW 11 13 6 7 1015.1 1015.0 0.0
21/06:00pm 23.9 20.0 5.3 30 9.4 WNW 15 17 8 9 1014.8 1014.7 0.0
21/05:30pm 25.7 21.2 2.4 22 11.3 NNW 15 19 8 10 1014.6 1014.5 0.0
21/05:00pm 26.6 21.4 2.5 21 11.7 NNW 19 22 10 12 1014.4 1014.3 0.0
21/04:30pm 27.2 21.5 3.0 21 11.9 NNW 22 26 12 14 1014.2 1014.1 0.0
21/04:00pm 28.5 23.3 5.4 23 12.0 N 22 28 12 15 1014.0 1013.9 0.0
21/03:30pm 28.7 23.4 2.1 18 13.1 N 19 26 10 14 1013.9 1013.8 0.0
21/03:00pm 28.9 23.1 2.2 18 13.1 N 22 28 12 15 1014.0 1013.9 0.0
21/02:30pm 29.8 24.3 2.1 17 13.7 NNE 20 26 11 14 1014.1 1014.0 0.0
21/02:00pm 29.1 23.4 3.1 19 13.0 N 22 33 12 18 1014.2 1014.1 0.0
21/01:30pm 30.0 25.9 4.6 20 13.1 NNE 15 20 8 11 1014.4 1014.3 0.0
21/01:00pm 29.2 25.1 4.6 21 12.6 NNE 15 20 8 11 1014.8 1014.7 0.0
21/12:30pm 28.7 24.3 4.9 22 12.3 NNE 17 24 9 13 1015.3 1015.2 0.0
21/12:00pm 28.0 24.4 5.0 23 11.8 NNE 13 19 7 10 1015.8 1015.7 0.0
21/11:30am 27.4 23.7 6.2 26 11.1 NE 15 20 8 11 1016.3 1016.2 0.0
21/11:00am 27.6 24.6 5.8 25 11.3 NE 11 20 6 11 1016.7 1016.6 0.0
21/10:30am 26.6 24.0 7.6 30 10.1 E 11 17 6 9 1017.0 1016.9 0.0
21/10:00am 25.9 23.5 7.0 30 9.9 ENE 9 15 5 8 1017.2 1017.1 0.0
21/09:30am 24.7 22.0 5.5 29 9.8 E 9 15 5 8 1017.3 1017.2 0.0
21/09:00am 22.7 21.3 8.8 41 7.4 E 6 9 3 5 1017.2 1017.1 0.0
21/08:30am 20.9 20.4 10.7 52 5.6 E 4 7 2 4 1017.0 1016.9 0.0
21/08:00am 17.2 17.5 13.5 79 2.1 SSW 4 9 2 5 1016.6 1016.5 0.0
21/07:30am 13.6 13.0 12.3 92 0.7 S 7 11 4 6 1016.5 1016.4 0.0
21/07:00am 9.1 7.5 7.9 92 0.6 SSW 6 6 3 3 1016.3 1016.2 0.0
21/06:30am 7.7 6.8 6.2 90 0.7 CALM 0 0 0 0 1016.0 1015.9 0.0
21/06:00am 8.1 7.3 6.4 89 0.8 CALM 0 0 0 0 1015.7 1015.6 0.0
21/05:30am 10.1 9.1 9.0 93 0.5 W 4 9 2 5 1015.2 1015.1 0.0
21/05:00am 8.7 8.1 7.2 90 0.7 CALM 0 0 0 0 1015.1 1015.0 0.0
21/04:30am 9.6 9.2 8.2 91 0.7 CALM 0 2 0 1 1015.1 1015.0 0.0
21/04:00am 10.5 10.3 9.1 91 0.7 CALM 0 0 0 0 1015.0 1014.9 0.0
21/03:30am 10.9 10.9 9.7 92 0.6 CALM 0 0 0 0 1015.1 1015.0 0.0
21/03:00am 10.2 9.8 8.3 88 0.9 CALM 0 0 0 0 1015.1 1015.0 0.0
21/02:30am 11.3 10.1 9.4 88 1.0 NNE 6 11 3 6 1015.2 1015.1 0.0
21/02:00am 12.0 10.7 10.1 88 1.0 NNE 7 9 4 5 1015.4 1015.3 0.0
21/01:30am 14.3 14.1 12.9 91 0.8 S 6 7 3 4 1015.6 1015.5 0.0
21/01:00am 14.2 13.0 12.8 91 0.8 S 11 13 6 7 1015.8 1015.7 0.0
21/12:30am 13.2 11.1 11.3 88 1.0 SSW 13 15 7 8 1016.1 1016.0 0.0
21/12:00am 13.6 13.0 11.7 88 1.0 S 6 9 3 5 1016.2 1016.1 0.0
 
Date/Time
WST
Temp
°C
App
Temp
°C
Dew
Point
Rel
Hum
%
Delta-T
°C
Wind Press
QNH
hPa
Press
MSL
hPa
Rain
since 9 am
mm
Dir
 
Spd
km/h
Gust
km/h
Spd
kts
Gust
kts
20/11:30pm 12.9 12.2 9.9 82 1.5 SSE 4 7 2 4 1016.4 1016.3 0.0
20/11:00pm 14.7 14.0 12.0 84 1.5 NNE 7 9 4 5 1016.6 1016.5 0.0
20/10:30pm 14.0 13.2 9.6 75 2.3 WNW 4 7 2 4 1016.5 1016.4 0.0
20/10:00pm 16.9 16.6 13.2 79 2.1 WNW 7 9 4 5 1016.5 1016.4 0.0
20/09:30pm 17.6 17.3 14.5 82 1.8 W 9 11 5 6 1016.4 1016.3 0.0

Other Formats:

Comma delimited format used in spreadsheet applications
http://www.bom.gov.au/fwo/IDW60801/IDW60801.94308.axf

JavaScript Object Notation format (JSON) in row-major order
http://www.bom.gov.au/fwo/IDW60801/IDW60801.94308.json